Time;durP1;ratioP1;P1;durP2;ratioP2;P2;SDS_P1;SDS_P2;PMS_P1;PMS_P2;Temp;Humidity;BMP_temperature;BMP_pressure;BME280_temperature;BME280_humidity;BME280_pressure;Samples;Min_cycle;Max_cycle;Signal;HPM_P1;HPM_P2
2023/04/24 00:00:14;;;;;;;1.25;0.35;;;9.70;99.90;;;;;;4967042;28;20057;-70
2023/04/24 00:02:41;;;;;;;0.45;0.40;;;9.70;99.90;;;;;;4962032;28;20062;-70
2023/04/24 00:05:07;;;;;;;1.35;0.50;;;9.70;99.90;;;;;;4966962;28;20379;-69
2023/04/24 00:07:34;;;;;;;2.58;0.57;;;9.80;99.90;;;;;;4966365;28;20552;-69
2023/04/24 00:10:00;;;;;;;0.50;0.50;;;9.70;99.90;;;;;;4979078;28;20050;-69
2023/04/24 00:12:26;;;;;;;1.95;0.70;;;9.80;99.90;;;;;;4956365;28;20040;-69
2023/04/24 00:14:52;;;;;;;1.67;0.90;;;9.80;99.90;;;;;;4963267;28;20041;-70
2023/04/24 00:17:21;;;;;;;0.98;0.80;;;9.80;99.90;;;;;;4981931;28;20038;-70
2023/04/24 00:19:58;;;;;;;1.10;0.95;;;9.70;99.90;;;;;;4950200;28;20047;-70
2023/04/24 00:22:28;;;;;;;1.45;1.17;;;9.80;99.90;;;;;;4961756;28;20058;-70
2023/04/24 00:24:54;;;;;;;2.60;1.00;;;9.80;99.90;;;;;;4971559;28;20054;-70
2023/04/24 00:27:20;;;;;;;1.50;1.20;;;9.80;99.90;;;;;;4969462;28;20089;-70
2023/04/24 00:29:45;;;;;;;1.50;1.30;;;9.80;99.90;;;;;;4965402;28;20045;-70
2023/04/24 00:32:11;;;;;;;1.70;1.35;;;9.80;99.90;;;;;;4979117;28;20043;-70
2023/04/24 00:34:37;;;;;;;1.52;1.42;;;9.80;99.90;;;;;;4967178;28;20263;-70
2023/04/24 00:37:03;;;;;;;2.03;1.77;;;9.80;99.90;;;;;;4966811;28;20479;-70
2023/04/24 00:39:29;;;;;;;2.15;1.95;;;9.80;99.90;;;;;;4982393;28;20042;-70
2023/04/24 00:41:55;;;;;;;1.70;1.60;;;9.80;99.90;;;;;;4963996;28;20030;-70
2023/04/24 00:44:21;;;;;;;1.95;1.80;;;9.80;99.90;;;;;;4965330;28;20048;-71
2023/04/24 00:46:51;;;;;;;1.90;1.80;;;9.80;99.90;;;;;;4956112;28;20031;-70
2023/04/24 00:49:19;;;;;;;2.40;2.20;;;9.80;99.90;;;;;;4968183;28;20452;-70
2023/04/24 00:51:45;;;;;;;1.95;1.70;;;9.80;99.90;;;;;;4965976;28;20030;-70
2023/04/24 00:54:12;;;;;;;2.03;1.83;;;9.80;99.90;;;;;;4970834;28;20474;-70
2023/04/24 00:56:38;;;;;;;2.28;2.08;;;9.80;99.90;;;;;;4967230;28;20093;-70
2023/04/24 00:59:04;;;;;;;2.45;2.25;;;9.80;99.90;;;;;;4971658;28;20034;-70
2023/04/24 01:01:30;;;;;;;2.67;2.47;;;9.80;99.90;;;;;;4981223;28;20085;-72
2023/04/24 01:03:57;;;;;;;2.38;2.17;;;9.80;99.90;;;;;;4989145;28;20120;-72
2023/04/24 01:06:27;;;;;;;2.67;2.47;;;9.80;99.90;;;;;;4971617;28;20046;-72
2023/04/24 01:08:53;;;;;;;3.35;2.65;;;9.80;99.90;;;;;;4968560;28;20498;-72
2023/04/24 01:11:20;;;;;;;3.53;3.22;;;9.80;99.90;;;;;;4968149;28;20061;-72
2023/04/24 01:13:47;;;;;;;4.00;3.70;;;9.90;99.90;;;;;;4969917;28;20035;-72
2023/04/24 01:16:15;;;;;;;4.70;4.20;;;9.80;99.90;;;;;;4963803;28;20056;-72
2023/04/24 01:18:41;;;;;;;4.78;4.38;;;9.90;99.90;;;;;;4964872;28;20037;-72
2023/04/24 01:21:08;;;;;;;5.45;4.97;;;9.90;99.90;;;;;;4982353;28;20047;-72
2023/04/24 01:23:35;;;;;;;6.03;5.43;;;9.90;99.90;;;;;;4969042;28;20062;-72
2023/04/24 01:26:01;;;;;;;5.95;5.45;;;9.90;99.90;;;;;;4972684;28;20049;-72
2023/04/24 01:28:26;;;;;;;6.22;5.72;;;9.90;99.90;;;;;;4974420;28;20038;-72
2023/04/24 01:30:53;;;;;;;6.63;6.10;;;9.90;99.90;;;;;;4967379;28;20054;-72
2023/04/24 01:33:21;;;;;;;6.68;6.07;;;9.90;99.90;;;;;;4983634;28;20037;-72
2023/04/24 01:35:48;;;;;;;6.10;5.60;;;9.90;99.90;;;;;;4985048;28;20058;-72
2023/04/24 01:38:13;;;;;;;6.85;5.97;;;9.90;99.90;;;;;;4989026;28;20039;-72
2023/04/24 01:40:39;;;;;;;7.05;6.35;;;10.00;99.90;;;;;;4969471;28;20050;-72
2023/04/24 01:43:05;;;;;;;6.53;5.80;;;10.00;99.90;;;;;;4969068;28;20272;-72
2023/04/24 01:45:31;;;;;;;5.85;5.35;;;10.00;99.90;;;;;;4967892;28;20038;-72
2023/04/24 01:47:57;;;;;;;6.10;5.55;;;10.00;99.90;;;;;;4977545;28;20047;-72
2023/04/24 01:50:23;;;;;;;6.05;5.35;;;10.00;99.90;;;;;;4969892;28;20062;-72
2023/04/24 01:52:48;;;;;;;5.60;5.18;;;10.00;99.90;;;;;;4982982;28;20035;-72
2023/04/24 01:55:14;;;;;;;5.63;5.22;;;10.00;99.90;;;;;;4967547;28;20027;-72
2023/04/24 01:57:40;;;;;;;5.13;4.72;;;10.00;99.90;;;;;;4962541;28;20042;-72
2023/04/24 02:00:07;;;;;;;5.45;5.05;;;10.00;99.90;;;;;;4966983;28;20121;-71
2023/04/24 02:02:33;;;;;;;5.50;5.10;;;10.00;99.90;;;;;;4968620;28;20092;-71
2023/04/24 02:04:59;;;;;;;5.50;5.10;;;9.90;99.90;;;;;;4965568;28;20097;-71
2023/04/24 02:07:24;;;;;;;6.57;6.05;;;9.90;99.90;;;;;;4955109;28;20467;-71
2023/04/24 02:09:50;;;;;;;5.88;5.38;;;9.90;99.90;;;;;;4985657;28;20491;-71
2023/04/24 02:12:17;;;;;;;6.03;5.63;;;9.90;99.90;;;;;;4966585;28;20041;-71
2023/04/24 02:14:43;;;;;;;5.55;5.15;;;9.90;99.90;;;;;;4964118;28;20469;-71
2023/04/24 02:17:15;;;;;;;5.63;5.13;;;9.80;99.90;;;;;;4964773;28;20097;-71
2023/04/24 02:19:40;;;;;;;5.47;5.07;;;9.80;99.90;;;;;;4967965;28;20034;-71
2023/04/24 02:22:06;;;;;;;4.80;4.40;;;9.80;99.90;;;;;;4983734;28;20047;-71
2023/04/24 02:24:32;;;;;;;6.25;4.90;;;9.80;99.90;;;;;;4960463;28;20034;-71
2023/04/24 02:26:58;;;;;;;5.22;4.18;;;9.70;99.90;;;;;;4964037;28;20049;-71
2023/04/24 02:29:23;;;;;;;5.30;4.80;;;9.70;99.90;;;;;;4964734;28;20499;-71
2023/04/24 02:31:49;;;;;;;4.68;4.38;;;9.70;99.90;;;;;;4987340;28;20065;-71
2023/04/24 02:34:16;;;;;;;4.00;3.70;;;9.70;99.90;;;;;;4960421;28;20043;-71
2023/04/24 02:36:42;;;;;;;4.82;4.32;;;9.70;99.90;;;;;;4964098;28;20049;-71
2023/04/24 02:39:08;;;;;;;4.25;3.85;;;9.70;99.90;;;;;;4967446;28;20043;-71
2023/04/24 02:41:34;;;;;;;4.38;3.97;;;9.60;99.90;;;;;;4965316;28;20047;-71
2023/04/24 02:44:00;;;;;;;3.67;3.38;;;9.60;99.90;;;;;;4958944;28;20046;-71
2023/04/24 02:46:25;;;;;;;3.90;3.60;;;9.60;99.90;;;;;;4968016;28;20057;-71
2023/04/24 02:48:51;;;;;;;3.95;3.38;;;9.60;99.90;;;;;;4966586;28;20046;-71
2023/04/24 02:51:17;;;;;;;3.22;2.92;;;9.60;99.90;;;;;;4983471;28;20096;-71
2023/04/24 02:53:43;;;;;;;3.50;3.20;;;9.60;99.90;;;;;;4963171;28;20058;-71
2023/04/24 02:56:12;;;;;;;2.58;2.38;;;9.60;99.90;;;;;;4984869;28;20046;-71
2023/04/24 02:58:37;;;;;;;5.10;2.38;;;9.60;99.90;;;;;;4956812;28;20046;-71
2023/04/24 03:01:04;;;;;;;2.78;2.20;;;9.60;99.90;;;;;;4967247;28;20048;-71
2023/04/24 03:03:30;;;;;;;3.47;2.10;;;9.60;99.90;;;;;;4964557;28;20550;-71
2023/04/24 03:05:56;;;;;;;3.42;2.50;;;9.50;99.90;;;;;;4979517;28;20049;-71
2023/04/24 03:08:22;;;;;;;4.80;2.28;;;9.50;99.90;;;;;;4955316;28;20050;-71
2023/04/24 03:10:48;;;;;;;3.95;3.45;;;9.50;99.90;;;;;;4962870;28;20174;-71
2023/04/24 03:13:15;;;;;;;3.47;3.17;;;9.50;99.90;;;;;;4967191;28;20038;-71
2023/04/24 03:15:41;;;;;;;3.47;3.17;;;9.50;99.90;;;;;;4979497;28;20077;-71
2023/04/24 03:18:06;;;;;;;4.20;3.53;;;9.50;99.90;;;;;;4965116;28;20128;-72
2023/04/24 03:20:32;;;;;;;4.60;3.88;;;9.50;99.90;;;;;;4967392;28;20042;-71
2023/04/24 03:22:58;;;;;;;4.50;4.20;;;9.50;99.90;;;;;;4965905;28;20042;-71
2023/04/24 03:25:24;;;;;;;4.85;4.28;;;9.40;99.90;;;;;;4968221;28;20454;-71
2023/04/24 03:27:49;;;;;;;5.00;4.60;;;9.50;99.90;;;;;;4953917;28;20053;-71
2023/04/24 03:30:15;;;;;;;5.28;4.78;;;9.50;99.90;;;;;;4963662;28;20066;-71
2023/04/24 03:32:41;;;;;;;5.57;5.18;;;9.40;99.90;;;;;;4963979;28;20045;-71
2023/04/24 03:35:08;;;;;;;5.25;4.80;;;9.40;99.90;;;;;;4976988;28;20496;-71
2023/04/24 03:37:34;;;;;;;5.10;4.70;;;9.40;99.90;;;;;;4966854;28;20083;-71
2023/04/24 03:40:00;;;;;;;5.70;5.03;;;9.50;99.90;;;;;;4962393;28;20043;-71
2023/04/24 03:42:26;;;;;;;5.45;4.75;;;9.40;99.90;;;;;;4962217;28;20078;-71
2023/04/24 03:44:51;;;;;;;5.80;4.78;;;9.40;99.90;;;;;;4965226;28;20073;-71
2023/04/24 03:47:17;;;;;;;4.78;4.38;;;9.40;99.90;;;;;;4960879;28;20051;-71
2023/04/24 03:49:43;;;;;;;4.88;4.47;;;9.40;99.90;;;;;;4961688;28;20050;-71
2023/04/24 03:52:09;;;;;;;4.28;3.88;;;9.40;99.90;;;;;;4963371;28;20081;-71
2023/04/24 03:54:34;;;;;;;4.13;3.78;;;9.40;99.90;;;;;;4963572;28;20046;-71
2023/04/24 03:57:01;;;;;;;3.85;2.80;;;9.40;99.90;;;;;;4962360;28;20055;-71
2023/04/24 03:59:27;;;;;;;2.55;2.30;;;9.40;99.90;;;;;;4962676;28;20126;-71
2023/04/24 04:01:52;;;;;;;2.22;2.03;;;9.40;99.90;;;;;;4975434;28;20130;-71
2023/04/24 04:04:18;;;;;;;2.08;1.60;;;9.40;99.90;;;;;;4975639;28;20035;-71
2023/04/24 04:06:44;;;;;;;1.33;1.23;;;9.50;99.90;;;;;;4963259;28;20046;-71
2023/04/24 04:09:10;;;;;;;2.38;1.10;;;9.50;99.90;;;;;;4958272;28;20127;-71
2023/04/24 04:11:36;;;;;;;1.33;0.73;;;9.50;99.90;;;;;;4955957;28;20049;-71
2023/04/24 04:14:02;;;;;;;2.28;0.75;;;9.50;99.90;;;;;;4962037;28;20098;-71
2023/04/24 04:16:27;;;;;;;1.23;0.70;;;9.40;99.90;;;;;;4960356;28;20043;-71
2023/04/24 04:18:53;;;;;;;0.68;0.40;;;9.40;99.90;;;;;;4959250;28;20070;-71
2023/04/24 04:21:19;;;;;;;1.30;0.60;;;9.50;99.90;;;;;;4959784;28;20068;-71
2023/04/24 04:23:45;;;;;;;0.30;0.30;;;9.40;99.90;;;;;;4962342;28;20043;-71
2023/04/24 04:26:12;;;;;;;0.57;0.30;;;9.50;99.90;;;;;;4976673;28;20058;-71
2023/04/24 04:28:38;;;;;;;0.95;0.30;;;9.40;99.90;;;;;;4958869;28;20145;-71
2023/04/24 04:31:04;;;;;;;1.33;0.30;;;9.40;99.90;;;;;;4958728;28;20053;-71
2023/04/24 04:33:30;;;;;;;0.95;0.30;;;9.40;99.90;;;;;;4958187;28;20038;-71
2023/04/24 04:35:58;;;;;;;0.55;0.30;;;9.40;99.90;;;;;;4964445;28;20050;-71
2023/04/24 04:38:26;;;;;;;0.70;0.50;;;9.30;99.90;;;;;;4959418;28;20443;-71
2023/04/24 04:40:52;;;;;;;0.63;0.45;;;9.30;99.90;;;;;;4961908;28;20046;-71
2023/04/24 04:43:17;;;;;;;1.45;0.70;;;9.30;99.90;;;;;;4960817;28;20554;-71
2023/04/24 04:45:44;;;;;;;0.70;0.70;;;9.30;99.90;;;;;;4971181;28;20088;-72
2023/04/24 04:48:12;;;;;;;0.90;0.88;;;9.30;99.90;;;;;;4953013;28;20049;-72
2023/04/24 04:50:38;;;;;;;1.02;1.00;;;9.30;99.90;;;;;;4961594;28;20097;-71
2023/04/24 04:53:05;;;;;;;1.42;1.15;;;9.30;99.90;;;;;;4961902;28;20075;-71
2023/04/24 04:55:30;;;;;;;1.85;1.60;;;9.30;99.90;;;;;;4958376;28;20039;-71
2023/04/24 04:57:57;;;;;;;2.13;1.40;;;9.30;99.90;;;;;;4956298;28;20443;-72
2023/04/24 05:00:25;;;;;;;2.10;1.80;;;9.40;99.90;;;;;;4961628;28;20042;-71
2023/04/24 05:02:51;;;;;;;1.77;1.40;;;9.40;99.90;;;;;;4962651;28;20153;-72
2023/04/24 05:05:17;;;;;;;2.83;1.40;;;9.40;99.90;;;;;;4962011;28;20095;-71
2023/04/24 05:07:44;;;;;;;2.92;2.00;;;9.30;99.90;;;;;;4957874;28;20086;-71
2023/04/24 05:10:10;;;;;;;1.90;1.63;;;9.30;99.90;;;;;;4966981;28;20255;-71
2023/04/24 05:12:36;;;;;;;2.17;1.73;;;9.40;99.90;;;;;;4962598;28;20066;-71
2023/04/24 05:15:02;;;;;;;1.77;1.60;;;9.40;99.90;;;;;;4957792;28;20141;-71
2023/04/24 05:17:28;;;;;;;3.08;1.83;;;9.40;99.90;;;;;;4959072;28;20082;-71
2023/04/24 05:19:54;;;;;;;1.70;1.40;;;9.30;99.90;;;;;;4961858;28;20140;-70
2023/04/24 05:22:20;;;;;;;3.15;1.80;;;9.40;99.90;;;;;;4962866;28;20053;-70
2023/04/24 05:24:47;;;;;;;2.65;2.00;;;9.30;99.90;;;;;;4957017;28;20055;-70
2023/04/24 05:27:12;;;;;;;2.05;1.85;;;9.30;99.90;;;;;;4962324;28;20606;-71
2023/04/24 05:29:38;;;;;;;2.22;1.98;;;9.30;99.90;;;;;;4959759;28;20046;-70
2023/04/24 05:32:04;;;;;;;2.08;1.88;;;9.30;99.90;;;;;;4959894;28;20495;-70
2023/04/24 05:34:30;;;;;;;3.25;2.20;;;9.30;99.90;;;;;;4962934;28;20509;-70
2023/04/24 05:36:55;;;;;;;2.83;2.13;;;9.40;99.90;;;;;;4986870;28;20046;-71
2023/04/24 05:39:21;;;;;;;2.78;2.15;;;9.40;99.90;;;;;;4968311;28;20038;-70
2023/04/24 05:41:47;;;;;;;4.00;2.50;;;9.30;99.90;;;;;;4970657;28;20038;-70
2023/04/24 05:44:13;;;;;;;2.53;2.30;;;9.40;99.90;;;;;;4964260;28;20181;-70
2023/04/24 05:46:38;;;;;;;6.35;2.55;;;9.30;99.90;;;;;;4979886;28;20034;-70
2023/04/24 05:49:04;;;;;;;2.35;1.63;;;9.40;99.90;;;;;;4969271;28;20035;-70
2023/04/24 05:51:31;;;;;;;14.05;1.50;;;9.40;99.90;;;;;;4968605;28;20038;-70
2023/04/24 05:53:57;;;;;;;1.67;1.25;;;9.40;99.90;;;;;;4968306;28;20527;-70
2023/04/24 05:56:23;;;;;;;1.88;1.63;;;9.40;99.90;;;;;;4966364;28;20078;-70
2023/04/24 05:58:49;;;;;;;2.03;1.70;;;9.50;99.90;;;;;;4971990;28;20042;-70
2023/04/24 06:01:15;;;;;;;1.95;1.50;;;9.50;99.90;;;;;;4991264;28;20065;-70
2023/04/24 06:03:41;;;;;;;1.65;1.55;;;9.60;99.90;;;;;;4990999;28;20041;-70
2023/04/24 06:06:08;;;;;;;2.67;1.65;;;9.60;99.90;;;;;;4990263;28;20053;-69
2023/04/24 06:08:35;;;;;;;2.95;1.75;;;9.70;99.90;;;;;;4987460;28;20035;-70
2023/04/24 06:11:01;;;;;;;2.70;1.67;;;9.70;99.90;;;;;;5003583;28;20046;-70
2023/04/24 06:13:26;;;;;;;2.88;1.75;;;9.70;99.90;;;;;;4999501;28;20035;-70
2023/04/24 06:15:52;;;;;;;2.28;1.70;;;9.80;99.90;;;;;;5000067;28;20054;-70
2023/04/24 06:18:18;;;;;;;2.45;1.70;;;9.80;99.90;;;;;;4989482;28;20085;-71
2023/04/24 06:20:45;;;;;;;2.78;2.38;;;9.80;99.90;;;;;;4996546;28;20050;-70
2023/04/24 06:23:11;;;;;;;3.28;2.40;;;9.80;99.90;;;;;;5006200;28;20049;-70
2023/04/24 06:25:37;;;;;;;2.08;1.83;;;9.90;99.90;;;;;;4987004;28;20061;-70
2023/04/24 06:28:03;;;;;;;2.15;1.95;;;9.90;99.90;;;;;;4989260;28;20090;-71
2023/04/24 06:30:29;;;;;;;3.17;2.10;;;9.90;99.90;;;;;;4981978;28;20050;-71
2023/04/24 06:32:55;;;;;;;2.85;2.22;;;9.90;99.90;;;;;;4979629;28;20041;-71
2023/04/24 06:35:20;;;;;;;2.70;1.77;;;9.90;99.90;;;;;;4983755;28;20063;-71
2023/04/24 06:37:46;;;;;;;2.20;1.80;;;9.90;99.90;;;;;;4997790;28;20039;-71
2023/04/24 06:40:12;;;;;;;2.50;1.90;;;9.90;99.90;;;;;;4985846;28;20045;-72
2023/04/24 06:42:39;;;;;;;2.05;1.80;;;9.90;99.90;;;;;;4998249;28;20142;-71
2023/04/24 06:45:05;;;;;;;3.60;1.88;;;9.90;99.90;;;;;;4982586;28;20038;-71
2023/04/24 06:47:31;;;;;;;3.88;2.50;;;9.90;99.90;;;;;;4981723;28;20053;-71
2023/04/24 06:49:57;;;;;;;5.20;2.60;;;9.90;99.90;;;;;;4978009;28;20077;-71
2023/04/24 06:52:23;;;;;;;6.05;3.97;;;9.90;99.90;;;;;;4978929;28;20046;-71
2023/04/24 06:54:49;;;;;;;4.65;4.07;;;9.90;99.90;;;;;;4982309;28;21073;-71
2023/04/24 06:57:16;;;;;;;6.38;4.95;;;9.90;99.90;;;;;;4984991;28;20041;-71
2023/04/24 06:59:42;;;;;;;6.93;5.10;;;9.90;99.90;;;;;;4985078;28;20070;-71
2023/04/24 07:02:08;;;;;;;6.57;5.03;;;9.90;99.90;;;;;;4980635;28;20505;-70
2023/04/24 07:04:34;;;;;;;5.95;5.35;;;9.90;99.90;;;;;;4981877;28;20053;-71
2023/04/24 07:07:00;;;;;;;9.35;5.82;;;9.90;99.90;;;;;;4982248;28;20046;-71
2023/04/24 07:09:27;;;;;;;9.23;6.25;;;9.90;99.90;;;;;;4996727;28;20455;-71
2023/04/24 07:11:53;;;;;;;6.22;4.78;;;9.90;99.90;;;;;;4996773;28;20106;-71
2023/04/24 07:14:20;;;;;;;7.65;4.47;;;9.90;99.90;;;;;;4982081;28;20144;-71
2023/04/24 07:16:49;;;;;;;6.43;3.83;;;9.90;99.90;;;;;;4989816;28;20040;-72
2023/04/24 07:19:14;;;;;;;5.60;3.60;;;9.90;99.90;;;;;;4979220;28;20126;-71
2023/04/24 07:21:41;;;;;;;9.95;3.83;;;9.80;99.90;;;;;;4978025;28;20066;-72
2023/04/24 07:24:10;;;;;;;5.65;4.25;;;9.90;99.90;;;;;;5000667;28;20295;-72
2023/04/24 07:26:37;;;;;;;10.00;4.28;;;9.80;99.90;;;;;;4982063;28;20054;-70
2023/04/24 07:29:02;;;;;;;7.35;4.20;;;9.80;99.90;;;;;;4989508;28;20047;-71
2023/04/24 07:31:28;;;;;;;5.90;3.92;;;9.80;99.90;;;;;;4983690;28;20064;-71
2023/04/24 07:33:57;;;;;;;7.00;4.07;;;9.80;99.90;;;;;;4977578;28;20046;-71
2023/04/24 07:36:24;;;;;;;6.47;4.40;;;9.80;99.90;;;;;;4995832;28;20332;-71
2023/04/24 07:38:50;;;;;;;7.07;3.58;;;9.70;99.90;;;;;;4974923;28;20042;-71
2023/04/24 07:41:15;;;;;;;4.72;3.53;;;9.80;99.90;;;;;;4983180;28;20045;-71
2023/04/24 07:43:41;;;;;;;6.68;2.70;;;9.70;99.90;;;;;;4982105;28;20100;-70
2023/04/24 07:46:08;;;;;;;7.45;2.88;;;9.80;99.90;;;;;;4967889;28;20070;-70
2023/04/24 07:48:34;;;;;;;3.08;2.00;;;9.70;99.90;;;;;;4960252;28;20075;-70
2023/04/24 07:50:59;;;;;;;6.68;2.70;;;9.60;99.90;;;;;;4971291;28;20089;-72
2023/04/24 07:53:25;;;;;;;5.35;2.30;;;9.60;99.90;;;;;;4986445;28;20035;-72
2023/04/24 07:55:51;;;;;;;5.20;2.53;;;9.60;99.90;;;;;;4974429;28;20054;-73
2023/04/24 07:58:17;;;;;;;4.50;2.65;;;9.60;99.90;;;;;;4975092;28;20038;-72
2023/04/24 08:00:42;;;;;;;3.97;2.28;;;9.60;99.90;;;;;;4974346;28;20042;-72
2023/04/24 08:03:08;;;;;;;7.45;2.42;;;9.60;99.90;;;;;;4971360;28;20722;-72
2023/04/24 08:05:34;;;;;;;6.45;2.58;;;9.60;99.90;;;;;;4974574;28;20077;-72
2023/04/24 08:08:00;;;;;;;5.95;2.22;;;9.60;99.90;;;;;;4966301;28;20077;-71
2023/04/24 08:10:26;;;;;;;5.28;2.38;;;9.60;99.90;;;;;;4975095;28;20038;-71
2023/04/24 08:12:52;;;;;;;5.95;2.10;;;9.60;99.90;;;;;;4992738;28;20189;-71
2023/04/24 08:15:18;;;;;;;6.07;3.40;;;9.60;99.90;;;;;;4969757;28;20042;-71
2023/04/24 08:17:43;;;;;;;8.18;3.85;;;9.60;99.90;;;;;;4981738;28;20069;-70
2023/04/24 08:20:14;;;;;;;10.57;4.47;;;9.60;99.90;;;;;;4972577;28;20045;-70
2023/04/24 08:22:41;;;;;;;11.50;5.90;;;9.50;99.90;;;;;;4967181;28;20483;-70
2023/04/24 08:25:07;;;;;;;12.55;7.05;;;9.50;99.90;;;;;;4967535;28;20449;-70
2023/04/24 08:27:32;;;;;;;14.05;7.45;;;9.50;99.90;;;;;;4975378;28;20051;-70
2023/04/24 08:29:59;;;;;;;13.40;8.77;;;9.40;99.90;;;;;;4964730;28;20073;-72
2023/04/24 08:32:28;;;;;;;15.75;10.38;;;9.40;99.90;;;;;;4985287;28;20051;-71
2023/04/24 08:34:56;;;;;;;16.60;9.23;;;9.30;99.90;;;;;;4977848;28;20441;-71
2023/04/24 08:37:22;;;;;;;13.63;9.95;;;9.30;99.90;;;;;;4986558;28;20226;-73
2023/04/24 08:39:49;;;;;;;12.30;9.20;;;9.30;99.90;;;;;;4973267;28;20045;-74
2023/04/24 08:42:17;;;;;;;14.10;9.50;;;9.30;99.90;;;;;;4972136;28;20132;-73
2023/04/24 08:44:44;;;;;;;13.40;10.13;;;9.30;99.90;;;;;;4974605;28;20039;-73
2023/04/24 08:47:11;;;;;;;19.52;10.90;;;9.20;99.90;;;;;;4963363;28;20273;-72
2023/04/24 08:49:37;;;;;;;16.77;10.55;;;9.20;99.90;;;;;;4985752;28;20043;-72
2023/04/24 08:52:04;;;;;;;18.92;11.25;;;9.10;99.90;;;;;;4968454;28;20046;-72
2023/04/24 08:54:31;;;;;;;15.65;10.35;;;9.10;99.90;;;;;;4969897;28;20046;-73
2023/04/24 08:57:03;;;;;;;21.38;12.63;;;9.10;99.90;;;;;;4980760;28;20118;-72
2023/04/24 08:59:30;;;;;;;20.15;12.75;;;9.00;99.90;;;;;;4984491;28;20045;-73
2023/04/24 09:01:56;;;;;;;21.55;14.48;;;9.00;99.90;;;;;;4977741;28;20049;-71
2023/04/24 09:04:24;;;;;;;25.92;15.02;;;9.00;99.90;;;;;;4994782;28;20034;-73
2023/04/24 09:06:57;;;;;;;24.10;16.52;;;8.90;99.90;;;;;;4973885;28;20517;-73
2023/04/24 09:09:24;;;;;;;31.25;17.27;;;8.90;99.90;;;;;;4999156;28;20108;-73
2023/04/24 09:11:53;;;;;;;22.88;16.45;;;8.80;99.90;;;;;;4965239;28;20102;-72
2023/04/24 09:14:19;;;;;;;26.67;17.17;;;8.80;99.90;;;;;;4978302;28;20067;-73
2023/04/24 09:16:45;;;;;;;18.77;15.38;;;8.90;99.90;;;;;;4996400;28;20041;-73
2023/04/24 09:19:12;;;;;;;19.73;15.43;;;8.90;99.90;;;;;;4983368;28;20053;-73
2023/04/24 09:21:37;;;;;;;20.90;14.80;;;8.90;99.90;;;;;;4975519;28;20038;-73
2023/04/24 09:24:14;;;;;;;20.35;14.23;;;8.90;99.90;;;;;;4971558;28;20042;-73
2023/04/24 09:26:40;;;;;;;22.95;13.45;;;8.90;99.90;;;;;;4966272;28;20047;-72
2023/04/24 09:29:06;;;;;;;17.80;12.23;;;8.90;99.90;;;;;;4971334;28;20505;-72
2023/04/24 09:31:31;;;;;;;18.90;13.10;;;8.90;99.90;;;;;;4950327;28;20130;-72
2023/04/24 09:34:03;;;;;;;19.02;13.48;;;9.00;99.90;;;;;;4984645;28;20034;-72
2023/04/24 09:36:37;;;;;;;19.65;14.15;;;9.00;99.90;;;;;;4966609;28;20193;-71
2023/04/24 09:39:08;;;;;;;15.93;10.75;;;9.10;99.90;;;;;;4969384;28;20045;-71
2023/04/24 09:41:34;;;;;;;15.25;10.77;;;9.10;99.90;;;;;;4979757;28;20062;-70
2023/04/24 09:44:13;;;;;;;15.25;9.95;;;9.10;99.90;;;;;;4963369;28;20433;-70
2023/04/24 09:46:40;;;;;;;14.88;9.88;;;9.00;99.90;;;;;;4966078;28;20053;-71
2023/04/24 09:49:15;;;;;;;12.48;9.50;;;9.00;99.90;;;;;;4988525;28;20046;-70
2023/04/24 09:51:41;;;;;;;13.50;10.35;;;9.00;99.90;;;;;;4963438;28;20047;-71
2023/04/24 09:54:18;;;;;;;20.58;9.90;;;8.90;99.90;;;;;;4983344;28;20046;-71
2023/04/24 09:56:49;;;;;;;17.27;9.77;;;8.90;99.90;;;;;;4968123;28;20043;-70
2023/04/24 09:59:17;;;;;;;13.95;7.43;;;8.90;99.90;;;;;;4967516;28;20046;-70
2023/04/24 10:01:48;;;;;;;16.60;8.18;;;8.90;99.90;;;;;;4966244;28;20065;-70
2023/04/24 10:04:23;;;;;;;12.73;7.65;;;8.90;99.90;;;;;;4968875;28;20113;-70
2023/04/24 10:06:49;;;;;;;17.25;8.73;;;9.00;99.90;;;;;;4971439;28;20383;-70
2023/04/24 10:09:23;;;;;;;16.48;8.07;;;9.00;99.90;;;;;;4964283;28;20043;-70
2023/04/24 10:11:51;;;;;;;13.10;7.85;;;9.10;99.90;;;;;;4983854;28;20486;-70
2023/04/24 10:14:25;;;;;;;12.40;6.95;;;9.20;99.90;;;;;;4965420;28;20086;-70
2023/04/24 10:16:53;;;;;;;17.23;6.70;;;9.20;99.90;;;;;;4957719;28;20435;-70
2023/04/24 10:19:19;;;;;;;16.95;6.07;;;9.30;99.90;;;;;;4983961;28;20068;-71
2023/04/24 10:21:48;;;;;;;14.63;6.22;;;9.30;99.90;;;;;;4951115;28;20045;-70
2023/04/24 10:24:15;;;;;;;9.38;4.63;;;9.30;99.90;;;;;;4964983;28;20090;-71
2023/04/24 10:26:42;;;;;;;12.15;5.10;;;9.30;99.90;;;;;;4967998;28;20134;-70
2023/04/24 10:29:09;;;;;;;12.88;4.75;;;9.20;99.90;;;;;;4988809;28;21207;-70
2023/04/24 10:31:37;;;;;;;11.90;4.85;;;9.20;99.90;;;;;;4986940;28;20042;-70
2023/04/24 10:34:05;;;;;;;14.32;4.85;;;9.10;99.90;;;;;;4965144;28;20058;-70
2023/04/24 10:36:32;;;;;;;13.15;5.00;;;9.00;99.90;;;;;;4983691;28;20559;-70
2023/04/24 10:39:00;;;;;;;17.95;4.95;;;9.00;99.90;;;;;;4967543;28;20043;-70
2023/04/24 10:41:27;;;;;;;9.30;3.40;;;9.00;99.90;;;;;;4960086;28;20061;-70
2023/04/24 10:44:09;;;;;;;12.55;3.55;;;8.90;99.90;;;;;;4984300;28;20042;-70
2023/04/24 10:46:35;;;;;;;18.83;4.30;;;8.90;99.90;;;;;;4968501;28;20042;-70
2023/04/24 10:49:10;;;;;;;12.73;3.30;;;8.90;99.90;;;;;;4966457;28;20534;-70
2023/04/24 10:51:50;;;;;;;8.40;3.15;;;8.80;99.90;;;;;;4963553;28;20112;-70
2023/04/24 10:54:46;;;;;;;10.52;2.75;;;8.80;99.90;;;;;;4967294;28;20041;-70
2023/04/24 10:57:18;;;;;;;13.93;3.10;;;8.80;99.90;;;;;;4942523;28;20049;-70
2023/04/24 10:59:44;;;;;;;13.40;3.10;;;8.90;99.90;;;;;;4962441;28;20063;-70
2023/04/24 11:02:10;;;;;;;13.23;3.42;;;9.00;99.90;;;;;;4980454;28;20038;-70
2023/04/24 11:04:36;;;;;;;11.38;3.13;;;9.20;99.90;;;;;;4983645;28;20074;-70
2023/04/24 11:07:05;;;;;;;13.68;3.70;;;9.30;99.90;;;;;;4963304;28;20045;-70
2023/04/24 11:09:32;;;;;;;13.07;3.67;;;9.40;99.90;;;;;;4979015;28;20058;-70
2023/04/24 11:12:10;;;;;;;11.20;2.65;;;9.40;99.90;;;;;;4964228;28;20046;-70
2023/04/24 11:14:57;;;;;;;9.00;2.38;;;9.30;99.90;;;;;;4979398;28;20102;-70
2023/04/24 11:17:33;;;;;;;11.23;2.50;;;9.30;99.90;;;;;;4955933;28;20462;-70
2023/04/24 11:20:07;;;;;;;8.43;2.55;;;9.20;99.90;;;;;;4969091;28;20524;-70
2023/04/24 11:22:35;;;;;;;;;;;9.10;99.90;;;;;;4968539;28;20358;-70
2023/04/24 11:25:04;;;;;;;8.95;2.40;;;9.00;99.90;;;;;;4967370;28;20413;-71
2023/04/24 11:27:32;;;;;;;9.25;2.83;;;9.10;99.90;;;;;;4959639;28;20045;-70
2023/04/24 11:30:00;;;;;;;8.52;2.55;;;9.10;99.90;;;;;;4961881;28;20051;-71
2023/04/24 11:32:32;;;;;;;12.60;2.47;;;9.10;99.90;;;;;;4954588;28;20097;-71
2023/04/24 11:35:13;;;;;;;11.05;2.92;;;9.30;99.90;;;;;;4964973;28;20577;-71
2023/04/24 11:37:41;;;;;;;9.38;2.30;;;9.30;99.90;;;;;;4977665;28;20371;-71
2023/04/24 11:40:10;;;;;;;12.43;2.45;;;9.40;99.90;;;;;;4954381;28;20042;-70
2023/04/24 11:42:37;;;;;;;8.15;1.77;;;9.50;99.90;;;;;;4965647;28;20050;-70
2023/04/24 11:45:09;;;;;;;12.75;2.67;;;9.50;99.90;;;;;;4964290;28;20121;-71
2023/04/24 11:47:35;;;;;;;10.77;2.30;;;9.60;99.90;;;;;;4957537;28;20513;-70
2023/04/24 11:50:02;;;;;;;6.97;1.77;;;9.60;99.90;;;;;;4972335;28;20117;-70
2023/04/24 11:52:28;;;;;;;6.63;1.95;;;9.60;99.90;;;;;;4962580;28;20039;-71
2023/04/24 11:54:54;;;;;;;8.85;1.67;;;9.60;99.90;;;;;;4981344;28;20043;-71
2023/04/24 11:57:21;;;;;;;7.97;1.77;;;9.50;99.90;;;;;;4958554;28;20042;-71
2023/04/24 11:59:47;;;;;;;5.53;1.30;;;9.40;99.90;;;;;;4967134;28;20046;-70
2023/04/24 12:02:26;;;;;;;5.22;1.70;;;9.20;99.90;;;;;;4962005;28;20429;-70
2023/04/24 12:04:55;;;;;;;6.32;1.45;;;9.20;99.90;;;;;;4965572;28;20045;-71
2023/04/24 12:07:22;;;;;;;7.35;1.50;;;9.20;99.90;;;;;;4961023;28;20666;-71
2023/04/24 12:09:54;;;;;;;6.53;1.08;;;9.20;99.90;;;;;;4968853;28;20077;-71
2023/04/24 12:12:20;;;;;;;7.18;1.80;;;9.20;99.90;;;;;;4978531;28;20045;-71
2023/04/24 12:14:56;;;;;;;6.57;1.65;;;9.30;99.90;;;;;;4980826;28;20490;-71
2023/04/24 12:17:30;;;;;;;11.15;1.90;;;9.40;99.90;;;;;;4978730;28;20088;-71
2023/04/24 12:20:02;;;;;;;6.95;1.77;;;9.50;99.90;;;;;;4963108;28;20078;-71
2023/04/24 12:22:28;;;;;;;6.65;1.77;;;9.50;99.90;;;;;;4943279;28;20049;-71
2023/04/24 12:24:59;;;;;;;4.85;1.00;;;9.60;99.90;;;;;;4962998;28;20038;-71
2023/04/24 12:27:25;;;;;;;4.28;0.80;;;9.70;99.90;;;;;;4949983;28;20080;-71
2023/04/24 12:29:56;;;;;;;5.70;0.93;;;9.70;99.90;;;;;;4965180;28;20481;-71
2023/04/24 12:32:23;;;;;;;4.68;0.90;;;9.80;99.90;;;;;;4962346;28;20043;-71
2023/04/24 12:34:51;;;;;;;5.30;0.52;;;9.80;99.90;;;;;;4963552;28;20190;-70
2023/04/24 12:37:17;;;;;;;3.85;0.73;;;9.90;99.90;;;;;;4966701;28;20133;-70
2023/04/24 12:40:06;;;;;;;1.77;0.40;;;10.00;99.90;;;;;;4967072;28;20113;-70
2023/04/24 12:42:33;;;;;;;5.43;0.50;;;10.10;99.90;;;;;;4977859;28;20089;-71
2023/04/24 12:45:06;;;;;;;1.48;0.52;;;10.20;99.90;;;;;;4966375;28;20044;-71
2023/04/24 12:47:33;;;;;;;2.15;0.60;;;10.40;99.90;;;;;;4963502;28;20039;-72
2023/04/24 12:50:00;;;;;;;5.53;0.70;;;10.50;99.90;;;;;;4970933;28;20043;-71
2023/04/24 12:52:27;;;;;;;4.32;0.70;;;10.60;99.90;;;;;;4964183;28;20518;-71